sensor_id;sensor_type;location;lat;lon;timestamp;pressure;altitude;pressure_sealevel;temperature;humidity
51147;BME280;37207;53.060;18.726;2022-08-03T00:00:12;100949.79;;;17.58;61.57
51147;BME280;37207;53.060;18.726;2022-08-03T00:03:01;100950.04;;;17.54;61.16
51147;BME280;37207;53.060;18.726;2022-08-03T00:05:30;100951.14;;;17.51;61.26
51147;BME280;37207;53.060;18.726;2022-08-03T00:07:59;100955.29;;;17.52;61.45
51147;BME280;37207;53.060;18.726;2022-08-03T00:10:28;100956.20;;;17.51;61.45
51147;BME280;37207;53.060;18.726;2022-08-03T00:12:55;100957.08;;;17.51;61.67
51147;BME280;37207;53.060;18.726;2022-08-03T00:15:23;100958.58;;;17.52;61.85
51147;BME280;37207;53.060;18.726;2022-08-03T00:17:55;100955.27;;;17.54;62.35
51147;BME280;37207;53.060;18.726;2022-08-03T00:20:24;100962.07;;;17.50;62.23
51147;BME280;37207;53.060;18.726;2022-08-03T00:22:52;100960.81;;;17.45;62.12
51147;BME280;37207;53.060;18.726;2022-08-03T00:25:19;100960.95;;;17.41;62.18
51147;BME280;37207;53.060;18.726;2022-08-03T00:27:48;100962.64;;;17.40;62.24
51147;BME280;37207;53.060;18.726;2022-08-03T00:30:15;100960.58;;;17.38;62.42
51147;BME280;37207;53.060;18.726;2022-08-03T00:32:43;100961.05;;;17.36;62.44
51147;BME280;37207;53.060;18.726;2022-08-03T00:35:11;100959.08;;;17.36;62.52
51147;BME280;37207;53.060;18.726;2022-08-03T00:37:39;100958.10;;;17.37;62.73
51147;BME280;37207;53.060;18.726;2022-08-03T00:40:13;100955.52;;;17.35;63.21
51147;BME280;37207;53.060;18.726;2022-08-03T00:42:52;100950.84;;;17.32;63.29
51147;BME280;37207;53.060;18.726;2022-08-03T00:45:23;100955.71;;;17.29;63.12
51147;BME280;37207;53.060;18.726;2022-08-03T00:48:11;100953.98;;;17.30;62.93
51147;BME280;37207;53.060;18.726;2022-08-03T00:50:41;100955.19;;;17.31;63.09
51147;BME280;37207;53.060;18.726;2022-08-03T00:53:27;100956.11;;;17.32;63.04
51147;BME280;37207;53.060;18.726;2022-08-03T00:55:59;100954.88;;;17.33;63.12
51147;BME280;37207;53.060;18.726;2022-08-03T00:58:26;100953.10;;;17.33;63.36
51147;BME280;37207;53.060;18.726;2022-08-03T01:00:57;100947.77;;;17.31;63.35
51147;BME280;37207;53.060;18.726;2022-08-03T01:03:27;100947.19;;;17.28;63.61
51147;BME280;37207;53.060;18.726;2022-08-03T01:16:17;100932.42;;;17.22;63.82
51147;BME280;37207;53.060;18.726;2022-08-03T01:21:39;100929.29;;;17.22;63.70
51147;BME280;37207;53.060;18.726;2022-08-03T01:24:46;100924.77;;;17.20;63.73
51147;BME280;37207;53.060;18.726;2022-08-03T01:27:33;100929.65;;;17.20;63.78
51147;BME280;37207;53.060;18.726;2022-08-03T01:30:13;100929.46;;;17.19;64.08
51147;BME280;37207;53.060;18.726;2022-08-03T01:32:54;100931.00;;;17.17;64.39
51147;BME280;37207;53.060;18.726;2022-08-03T01:38:41;100936.18;;;17.08;64.82
51147;BME280;37207;53.060;18.726;2022-08-03T01:41:18;100937.33;;;17.04;64.93
51147;BME280;37207;53.060;18.726;2022-08-03T01:43:48;100933.23;;;17.02;65.13
51147;BME280;37207;53.060;18.726;2022-08-03T01:46:18;100934.38;;;16.99;65.39
51147;BME280;37207;53.060;18.726;2022-08-03T01:48:50;100941.33;;;17.00;65.51
51147;BME280;37207;53.060;18.726;2022-08-03T01:51:19;100944.61;;;17.02;65.37
51147;BME280;37207;53.060;18.726;2022-08-03T01:54:08;100940.48;;;17.03;65.47
51147;BME280;37207;53.060;18.726;2022-08-03T01:56:42;100938.17;;;16.99;65.54
51147;BME280;37207;53.060;18.726;2022-08-03T01:59:52;100939.11;;;16.98;65.57
51147;BME280;37207;53.060;18.726;2022-08-03T02:03:02;100938.02;;;16.99;65.73
51147;BME280;37207;53.060;18.726;2022-08-03T02:06:00;100939.33;;;17.01;65.93
51147;BME280;37207;53.060;18.726;2022-08-03T02:09:15;100938.38;;;17.00;66.06
51147;BME280;37207;53.060;18.726;2022-08-03T02:11:46;100942.52;;;17.02;65.96
51147;BME280;37207;53.060;18.726;2022-08-03T02:14:16;100936.94;;;17.02;65.93
51147;BME280;37207;53.060;18.726;2022-08-03T02:16:49;100929.08;;;17.02;66.31
51147;BME280;37207;53.060;18.726;2022-08-03T02:19:18;100931.36;;;17.01;66.10
51147;BME280;37207;53.060;18.726;2022-08-03T02:21:46;100927.25;;;17.02;65.80
51147;BME280;37207;53.060;18.726;2022-08-03T02:24:19;100926.60;;;17.01;65.88
51147;BME280;37207;53.060;18.726;2022-08-03T02:26:48;100928.23;;;17.05;65.79
51147;BME280;37207;53.060;18.726;2022-08-03T02:29:24;100923.26;;;17.06;65.57
51147;BME280;37207;53.060;18.726;2022-08-03T02:31:53;100922.73;;;17.09;65.48
51147;BME280;37207;53.060;18.726;2022-08-03T02:34:26;100920.57;;;17.12;65.60
51147;BME280;37207;53.060;18.726;2022-08-03T02:37:01;100924.67;;;17.13;65.51
51147;BME280;37207;53.060;18.726;2022-08-03T02:40:08;100923.30;;;17.15;65.42
51147;BME280;37207;53.060;18.726;2022-08-03T02:42:43;100922.44;;;17.15;65.18
51147;BME280;37207;53.060;18.726;2022-08-03T02:45:42;100920.77;;;17.16;65.30
51147;BME280;37207;53.060;18.726;2022-08-03T02:48:47;100922.08;;;17.17;65.18
51147;BME280;37207;53.060;18.726;2022-08-03T02:52:01;100924.04;;;17.18;65.11
51147;BME280;37207;53.060;18.726;2022-08-03T02:54:33;100927.08;;;17.19;65.09
51147;BME280;37207;53.060;18.726;2022-08-03T02:57:33;100925.80;;;17.20;64.94
51147;BME280;37207;53.060;18.726;2022-08-03T03:00:01;100922.96;;;17.19;64.86
51147;BME280;37207;53.060;18.726;2022-08-03T03:02:57;100926.42;;;17.23;64.74
51147;BME280;37207;53.060;18.726;2022-08-03T03:05:52;100922.50;;;17.25;64.67
51147;BME280;37207;53.060;18.726;2022-08-03T03:08:20;100925.18;;;17.26;64.63
51147;BME280;37207;53.060;18.726;2022-08-03T03:10:48;100922.33;;;17.27;64.48
51147;BME280;37207;53.060;18.726;2022-08-03T03:13:23;100920.55;;;17.27;64.38
51147;BME280;37207;53.060;18.726;2022-08-03T03:15:55;100927.30;;;17.28;64.31
51147;BME280;37207;53.060;18.726;2022-08-03T03:18:26;100925.20;;;17.29;64.27
51147;BME280;37207;53.060;18.726;2022-08-03T03:21:01;100927.24;;;17.28;64.38
51147;BME280;37207;53.060;18.726;2022-08-03T03:23:30;100931.77;;;17.31;64.36
51147;BME280;37207;53.060;18.726;2022-08-03T03:26:00;100925.64;;;17.33;64.35
51147;BME280;37207;53.060;18.726;2022-08-03T03:28:48;100922.67;;;17.35;64.40
51147;BME280;37207;53.060;18.726;2022-08-03T03:31:18;100920.19;;;17.35;64.45
51147;BME280;37207;53.060;18.726;2022-08-03T03:33:49;100924.23;;;17.37;64.49
51147;BME280;37207;53.060;18.726;2022-08-03T03:36:46;100923.08;;;17.41;64.58
51147;BME280;37207;53.060;18.726;2022-08-03T03:39:14;100920.48;;;17.45;64.74
51147;BME280;37207;53.060;18.726;2022-08-03T03:41:46;100921.81;;;17.48;64.85
51147;BME280;37207;53.060;18.726;2022-08-03T03:44:15;100926.27;;;17.53;64.78
51147;BME280;37207;53.060;18.726;2022-08-03T03:46:43;100925.52;;;17.58;64.74
51147;BME280;37207;53.060;18.726;2022-08-03T03:49:13;100930.30;;;17.62;64.79
51147;BME280;37207;53.060;18.726;2022-08-03T03:51:40;100928.80;;;17.68;64.76
51147;BME280;37207;53.060;18.726;2022-08-03T03:54:08;100935.38;;;17.71;64.79
51147;BME280;37207;53.060;18.726;2022-08-03T03:56:36;100936.04;;;17.75;64.79
51147;BME280;37207;53.060;18.726;2022-08-03T03:59:04;100937.42;;;17.79;64.80
51147;BME280;37207;53.060;18.726;2022-08-03T04:01:32;100943.23;;;17.82;64.88
51147;BME280;37207;53.060;18.726;2022-08-03T04:04:00;100943.52;;;17.86;64.82
51147;BME280;37207;53.060;18.726;2022-08-03T04:06:48;100949.77;;;17.90;64.81
51147;BME280;37207;53.060;18.726;2022-08-03T04:09:36;100950.82;;;17.96;64.79
51147;BME280;37207;53.060;18.726;2022-08-03T04:12:29;100960.61;;;18.02;64.80
51147;BME280;37207;53.060;18.726;2022-08-03T04:15:08;100962.02;;;18.07;64.77
51147;BME280;37207;53.060;18.726;2022-08-03T04:17:41;100966.05;;;18.15;64.74
51147;BME280;37207;53.060;18.726;2022-08-03T04:20:12;100969.25;;;18.21;64.77
51147;BME280;37207;53.060;18.726;2022-08-03T04:23:00;100965.31;;;18.27;64.79
51147;BME280;37207;53.060;18.726;2022-08-03T04:25:51;100970.20;;;18.34;64.70
51147;BME280;37207;53.060;18.726;2022-08-03T04:28:47;100978.02;;;18.39;64.69
51147;BME280;37207;53.060;18.726;2022-08-03T04:31:21;100974.56;;;18.44;64.58
51147;BME280;37207;53.060;18.726;2022-08-03T04:34:10;100981.46;;;18.49;64.74
51147;BME280;37207;53.060;18.726;2022-08-03T04:36:44;100984.61;;;18.53;64.67
51147;BME280;37207;53.060;18.726;2022-08-03T04:39:26;100984.64;;;18.58;64.78
51147;BME280;37207;53.060;18.726;2022-08-03T04:42:03;100983.21;;;18.62;64.89
51147;BME280;37207;53.060;18.726;2022-08-03T04:44:39;100986.77;;;18.66;64.90
51147;BME280;37207;53.060;18.726;2022-08-03T04:47:08;100988.63;;;18.73;64.90
51147;BME280;37207;53.060;18.726;2022-08-03T04:49:57;100992.16;;;18.79;65.12
51147;BME280;37207;53.060;18.726;2022-08-03T04:53:05;100990.20;;;18.84;65.19
51147;BME280;37207;53.060;18.726;2022-08-03T04:55:39;100992.34;;;18.88;65.16
51147;BME280;37207;53.060;18.726;2022-08-03T04:58:07;100994.11;;;18.93;64.95
51147;BME280;37207;53.060;18.726;2022-08-03T05:00:35;100994.40;;;18.97;64.84
51147;BME280;37207;53.060;18.726;2022-08-03T05:03:02;100998.86;;;19.02;64.83
51147;BME280;37207;53.060;18.726;2022-08-03T05:05:30;101001.49;;;19.07;64.80
51147;BME280;37207;53.060;18.726;2022-08-03T05:08:01;101001.77;;;19.12;64.75
51147;BME280;37207;53.060;18.726;2022-08-03T05:10:32;101004.67;;;19.16;64.76
51147;BME280;37207;53.060;18.726;2022-08-03T05:13:03;101003.27;;;19.21;64.87
51147;BME280;37207;53.060;18.726;2022-08-03T05:15:31;101007.22;;;19.27;65.12
51147;BME280;37207;53.060;18.726;2022-08-03T05:18:25;101006.55;;;19.32;65.52
51147;BME280;37207;53.060;18.726;2022-08-03T05:21:08;101002.20;;;19.42;65.51
51147;BME280;37207;53.060;18.726;2022-08-03T05:23:38;101006.13;;;19.54;65.25
51147;BME280;37207;53.060;18.726;2022-08-03T05:26:05;101002.98;;;19.65;65.17
51147;BME280;37207;53.060;18.726;2022-08-03T05:28:34;101007.49;;;19.77;64.87
51147;BME280;37207;53.060;18.726;2022-08-03T05:31:02;101000.89;;;19.89;64.72
51147;BME280;37207;53.060;18.726;2022-08-03T05:33:30;101003.48;;;20.02;64.52
51147;BME280;37207;53.060;18.726;2022-08-03T05:36:00;101002.77;;;20.13;64.31
51147;BME280;37207;53.060;18.726;2022-08-03T05:38:27;101004.39;;;20.25;64.48
51147;BME280;37207;53.060;18.726;2022-08-03T05:40:56;100999.65;;;20.38;64.31
51147;BME280;37207;53.060;18.726;2022-08-03T05:43:24;101002.58;;;20.50;63.98
51147;BME280;37207;53.060;18.726;2022-08-03T05:45:51;101003.69;;;20.64;63.62
51147;BME280;37207;53.060;18.726;2022-08-03T05:48:18;101004.23;;;20.75;63.14
51147;BME280;37207;53.060;18.726;2022-08-03T05:50:46;101003.86;;;20.86;62.76
51147;BME280;37207;53.060;18.726;2022-08-03T05:53:14;101006.41;;;20.94;62.40
51147;BME280;37207;53.060;18.726;2022-08-03T05:55:43;101005.08;;;21.02;62.12
51147;BME280;37207;53.060;18.726;2022-08-03T05:58:10;101005.05;;;21.12;62.11
51147;BME280;37207;53.060;18.726;2022-08-03T06:00:38;101009.27;;;21.20;61.90
51147;BME280;37207;53.060;18.726;2022-08-03T06:03:05;101011.08;;;21.32;61.76
51147;BME280;37207;53.060;18.726;2022-08-03T06:05:33;101012.01;;;21.42;61.12
51147;BME280;37207;53.060;18.726;2022-08-03T06:08:06;101011.30;;;21.52;60.96
51147;BME280;37207;53.060;18.726;2022-08-03T06:10:34;101015.02;;;21.64;60.62
51147;BME280;37207;53.060;18.726;2022-08-03T06:13:01;101018.35;;;21.76;60.37
51147;BME280;37207;53.060;18.726;2022-08-03T06:15:29;101019.73;;;21.90;60.34
51147;BME280;37207;53.060;18.726;2022-08-03T06:18:00;101019.45;;;22.06;60.01
51147;BME280;37207;53.060;18.726;2022-08-03T06:20:29;101021.64;;;22.17;59.84
51147;BME280;37207;53.060;18.726;2022-08-03T06:22:56;101019.13;;;22.28;59.83
51147;BME280;37207;53.060;18.726;2022-08-03T06:25:23;101024.81;;;22.36;59.44
51147;BME280;37207;53.060;18.726;2022-08-03T06:27:51;101021.70;;;22.41;58.83
51147;BME280;37207;53.060;18.726;2022-08-03T06:30:19;101017.05;;;22.40;58.50
51147;BME280;37207;53.060;18.726;2022-08-03T06:32:46;101023.04;;;22.43;58.47
51147;BME280;37207;53.060;18.726;2022-08-03T06:35:13;101023.08;;;22.47;58.10
51147;BME280;37207;53.060;18.726;2022-08-03T06:37:44;101019.59;;;22.47;57.93
51147;BME280;37207;53.060;18.726;2022-08-03T06:40:13;101020.58;;;22.48;58.13
51147;BME280;37207;53.060;18.726;2022-08-03T06:42:41;101022.24;;;22.52;57.93
51147;BME280;37207;53.060;18.726;2022-08-03T06:45:10;101025.11;;;22.55;57.67
51147;BME280;37207;53.060;18.726;2022-08-03T06:47:39;101023.06;;;22.60;57.69
51147;BME280;37207;53.060;18.726;2022-08-03T06:50:07;101020.34;;;22.68;57.79
51147;BME280;37207;53.060;18.726;2022-08-03T06:52:35;101028.89;;;22.77;57.59
51147;BME280;37207;53.060;18.726;2022-08-03T06:55:03;101021.96;;;22.89;57.28
51147;BME280;37207;53.060;18.726;2022-08-03T06:57:30;101020.10;;;23.04;57.42
51147;BME280;37207;53.060;18.726;2022-08-03T06:59:58;101026.21;;;23.23;57.38
51147;BME280;37207;53.060;18.726;2022-08-03T07:02:30;101030.14;;;23.41;56.86
51147;BME280;37207;53.060;18.726;2022-08-03T07:04:57;101025.34;;;23.53;56.45
51147;BME280;37207;53.060;18.726;2022-08-03T07:07:25;101027.08;;;23.66;56.17
51147;BME280;37207;53.060;18.726;2022-08-03T07:09:52;101027.78;;;23.81;55.73
51147;BME280;37207;53.060;18.726;2022-08-03T07:12:19;101026.67;;;23.97;55.39
51147;BME280;37207;53.060;18.726;2022-08-03T07:14:46;101026.36;;;24.16;55.16
51147;BME280;37207;53.060;18.726;2022-08-03T07:17:13;101029.84;;;24.36;54.75
51147;BME280;37207;53.060;18.726;2022-08-03T07:19:40;101025.85;;;24.55;54.57
51147;BME280;37207;53.060;18.726;2022-08-03T07:22:08;101034.80;;;24.74;54.15
51147;BME280;37207;53.060;18.726;2022-08-03T07:24:35;101029.56;;;24.90;53.89
51147;BME280;37207;53.060;18.726;2022-08-03T07:27:02;101032.50;;;25.03;53.55
51147;BME280;37207;53.060;18.726;2022-08-03T07:29:30;101023.60;;;25.17;53.28
51147;BME280;37207;53.060;18.726;2022-08-03T07:31:57;101025.01;;;25.32;52.99
51147;BME280;37207;53.060;18.726;2022-08-03T07:34:25;101025.21;;;25.43;52.51
51147;BME280;37207;53.060;18.726;2022-08-03T07:36:52;101026.40;;;25.57;52.42
51147;BME280;37207;53.060;18.726;2022-08-03T07:39:19;101025.45;;;25.73;52.10
51147;BME280;37207;53.060;18.726;2022-08-03T07:41:46;101024.39;;;25.89;52.06
51147;BME280;37207;53.060;18.726;2022-08-03T07:44:17;101024.30;;;26.06;51.88
51147;BME280;37207;53.060;18.726;2022-08-03T07:46:44;101029.24;;;26.28;51.84
51147;BME280;37207;53.060;18.726;2022-08-03T07:49:11;101025.03;;;26.41;50.98
51147;BME280;37207;53.060;18.726;2022-08-03T07:51:39;101026.19;;;26.54;50.70
51147;BME280;37207;53.060;18.726;2022-08-03T07:54:06;101026.89;;;26.72;50.99
51147;BME280;37207;53.060;18.726;2022-08-03T07:56:36;101027.18;;;26.92;50.21
51147;BME280;37207;53.060;18.726;2022-08-03T07:59:03;101025.91;;;27.03;49.79
51147;BME280;37207;53.060;18.726;2022-08-03T08:01:30;101023.80;;;27.16;49.79
51147;BME280;37207;53.060;18.726;2022-08-03T08:04:01;101024.70;;;27.28;49.39
51147;BME280;37207;53.060;18.726;2022-08-03T08:06:28;101024.81;;;27.41;49.26
51147;BME280;37207;53.060;18.726;2022-08-03T08:08:57;101033.60;;;27.61;48.96
51147;BME280;37207;53.060;18.726;2022-08-03T08:11:27;101030.54;;;27.75;48.40
51147;BME280;37207;53.060;18.726;2022-08-03T08:13:54;101031.50;;;27.87;48.01
51147;BME280;37207;53.060;18.726;2022-08-03T08:16:23;101029.78;;;27.94;47.73
51147;BME280;37207;53.060;18.726;2022-08-03T08:18:51;101031.98;;;28.13;47.97
51147;BME280;37207;53.060;18.726;2022-08-03T08:21:18;101029.81;;;28.32;47.91
51147;BME280;37207;53.060;18.726;2022-08-03T08:23:45;101033.38;;;28.54;47.62
51147;BME280;37207;53.060;18.726;2022-08-03T08:26:13;101028.73;;;28.71;47.06
51147;BME280;37207;53.060;18.726;2022-08-03T08:28:42;101032.02;;;28.91;46.44
51147;BME280;37207;53.060;18.726;2022-08-03T08:31:10;101032.11;;;29.09;46.04
51147;BME280;37207;53.060;18.726;2022-08-03T08:33:40;101030.20;;;29.29;45.55
51147;BME280;37207;53.060;18.726;2022-08-03T08:36:10;101031.20;;;29.46;44.34
51147;BME280;37207;53.060;18.726;2022-08-03T08:38:41;101025.24;;;29.57;43.81
51147;BME280;37207;53.060;18.726;2022-08-03T08:41:11;101027.31;;;29.62;42.84
51147;BME280;37207;53.060;18.726;2022-08-03T08:43:39;101024.96;;;29.72;43.21
51147;BME280;37207;53.060;18.726;2022-08-03T08:46:07;101026.83;;;29.76;42.87
51147;BME280;37207;53.060;18.726;2022-08-03T08:48:40;101020.24;;;29.87;42.96
51147;BME280;37207;53.060;18.726;2022-08-03T08:51:10;101023.59;;;29.99;42.28
51147;BME280;37207;53.060;18.726;2022-08-03T08:53:44;101023.77;;;30.13;41.95
51147;BME280;37207;53.060;18.726;2022-08-03T08:56:14;101024.16;;;30.26;41.60
51147;BME280;37207;53.060;18.726;2022-08-03T08:58:50;101024.80;;;30.27;40.19
51147;BME280;37207;53.060;18.726;2022-08-03T09:01:18;101026.20;;;30.35;40.22
51147;BME280;37207;53.060;18.726;2022-08-03T09:03:47;101023.26;;;30.47;40.74
51147;BME280;37207;53.060;18.726;2022-08-03T09:06:15;101025.78;;;30.60;39.70
51147;BME280;37207;53.060;18.726;2022-08-03T09:08:43;101024.16;;;30.66;39.30
51147;BME280;37207;53.060;18.726;2022-08-03T09:11:12;101025.48;;;30.76;39.03
51147;BME280;37207;53.060;18.726;2022-08-03T09:13:39;101019.52;;;30.89;38.44
51147;BME280;37207;53.060;18.726;2022-08-03T09:18:45;101018.52;;;31.26;38.04
51147;BME280;37207;53.060;18.726;2022-08-03T09:23:45;101020.27;;;32.49;36.53
51147;BME280;37207;53.060;18.726;2022-08-03T09:26:24;101019.75;;;33.20;35.66
51147;BME280;37207;53.060;18.726;2022-08-03T09:31:36;101020.24;;;34.73;34.08
51147;BME280;37207;53.060;18.726;2022-08-03T09:34:05;101017.92;;;34.56;34.10
51147;BME280;37207;53.060;18.726;2022-08-03T09:36:48;101021.73;;;34.52;34.26
51147;BME280;37207;53.060;18.726;2022-08-03T09:39:18;101017.49;;;34.50;34.12
51147;BME280;37207;53.060;18.726;2022-08-03T09:41:47;101014.39;;;34.38;34.06
51147;BME280;37207;53.060;18.726;2022-08-03T09:44:34;101015.13;;;34.27;34.25
51147;BME280;37207;53.060;18.726;2022-08-03T09:47:03;101018.89;;;34.21;34.23
51147;BME280;37207;53.060;18.726;2022-08-03T09:49:31;101014.53;;;34.17;34.42
51147;BME280;37207;53.060;18.726;2022-08-03T09:52:10;101009.27;;;34.24;34.69
51147;BME280;37207;53.060;18.726;2022-08-03T09:54:38;101009.30;;;34.31;34.24
51147;BME280;37207;53.060;18.726;2022-08-03T09:57:05;101010.13;;;34.36;34.45
51147;BME280;37207;53.060;18.726;2022-08-03T09:59:33;101007.88;;;34.43;33.18
51147;BME280;37207;53.060;18.726;2022-08-03T10:02:00;101010.35;;;34.38;32.86
51147;BME280;37207;53.060;18.726;2022-08-03T10:04:28;101007.33;;;34.25;32.58
51147;BME280;37207;53.060;18.726;2022-08-03T10:07:09;101005.59;;;34.22;32.36
51147;BME280;37207;53.060;18.726;2022-08-03T10:09:37;101008.42;;;34.21;31.87
51147;BME280;37207;53.060;18.726;2022-08-03T10:14:40;100999.96;;;34.18;32.36
51147;BME280;37207;53.060;18.726;2022-08-03T10:17:12;101003.15;;;34.10;32.28
51147;BME280;37207;53.060;18.726;2022-08-03T10:19:42;100997.46;;;34.29;32.11
51147;BME280;37207;53.060;18.726;2022-08-03T10:22:16;100994.14;;;34.44;32.22
51147;BME280;37207;53.060;18.726;2022-08-03T10:27:26;100985.14;;;34.67;31.74
51147;BME280;37207;53.060;18.726;2022-08-03T10:29:55;100985.94;;;34.91;32.02
51147;BME280;37207;53.060;18.726;2022-08-03T10:32:51;100990.83;;;35.05;30.75
51147;BME280;37207;53.060;18.726;2022-08-03T10:35:20;100984.96;;;35.25;30.66
51147;BME280;37207;53.060;18.726;2022-08-03T10:38:02;100987.28;;;35.60;31.15
51147;BME280;37207;53.060;18.726;2022-08-03T10:40:34;100989.27;;;36.06;30.40
51147;BME280;37207;53.060;18.726;2022-08-03T10:43:09;100983.63;;;36.54;29.58
51147;BME280;37207;53.060;18.726;2022-08-03T10:45:40;100984.69;;;37.03;29.10
51147;BME280;37207;53.060;18.726;2022-08-03T10:48:09;100982.14;;;37.42;28.88
51147;BME280;37207;53.060;18.726;2022-08-03T10:50:37;100983.45;;;37.82;27.95
51147;BME280;37207;53.060;18.726;2022-08-03T10:53:06;100986.02;;;38.57;27.74
51147;BME280;37207;53.060;18.726;2022-08-03T11:01:08;100974.39;;;41.89;24.14
51147;BME280;37207;53.060;18.726;2022-08-03T11:06:22;100976.16;;;42.58;23.35
51147;BME280;37207;53.060;18.726;2022-08-03T11:11:36;100975.98;;;42.96;22.61
51147;BME280;37207;53.060;18.726;2022-08-03T11:14:06;100971.79;;;43.46;22.11
51147;BME280;37207;53.060;18.726;2022-08-03T11:16:34;100967.98;;;43.81;21.24
51147;BME280;37207;53.060;18.726;2022-08-03T11:19:11;100970.29;;;44.05;21.04
51147;BME280;37207;53.060;18.726;2022-08-03T11:27:17;100958.35;;;42.15;21.17
51147;BME280;37207;53.060;18.726;2022-08-03T11:35:17;100961.62;;;39.27;22.98
51147;BME280;37207;53.060;18.726;2022-08-03T11:40:38;100961.56;;;37.78;24.15
51147;BME280;37207;53.060;18.726;2022-08-03T11:46:07;100952.48;;;36.71;24.79
51147;BME280;37207;53.060;18.726;2022-08-03T11:48:39;100950.23;;;36.11;25.68
51147;BME280;37207;53.060;18.726;2022-08-03T11:51:26;100946.59;;;35.66;26.51
51147;BME280;37207;53.060;18.726;2022-08-03T11:54:00;100950.69;;;35.26;26.41
51147;BME280;37207;53.060;18.726;2022-08-03T11:56:46;100949.25;;;34.99;27.05
51147;BME280;37207;53.060;18.726;2022-08-03T11:59:13;100947.92;;;34.82;27.28
51147;BME280;37207;53.060;18.726;2022-08-03T12:01:43;100943.43;;;34.68;27.28
51147;BME280;37207;53.060;18.726;2022-08-03T12:04:16;100945.85;;;34.45;27.44
51147;BME280;37207;53.060;18.726;2022-08-03T12:07:00;100940.61;;;34.27;27.72
51147;BME280;37207;53.060;18.726;2022-08-03T12:09:27;100943.42;;;34.20;28.34
51147;BME280;37207;53.060;18.726;2022-08-03T12:11:54;100943.20;;;34.18;28.74
51147;BME280;37207;53.060;18.726;2022-08-03T12:14:23;100940.08;;;34.19;28.58
51147;BME280;37207;53.060;18.726;2022-08-03T12:16:50;100939.39;;;34.19;28.80
51147;BME280;37207;53.060;18.726;2022-08-03T12:19:19;100946.69;;;34.04;28.24
51147;BME280;37207;53.060;18.726;2022-08-03T12:21:47;100943.06;;;33.91;28.78
51147;BME280;37207;53.060;18.726;2022-08-03T12:24:15;100941.39;;;33.88;29.08
51147;BME280;37207;53.060;18.726;2022-08-03T12:26:43;100939.73;;;33.87;28.60
51147;BME280;37207;53.060;18.726;2022-08-03T12:29:18;100942.80;;;33.77;28.78
51147;BME280;37207;53.060;18.726;2022-08-03T12:31:45;100941.15;;;33.61;29.11
51147;BME280;37207;53.060;18.726;2022-08-03T12:34:14;100933.00;;;33.49;29.53
51147;BME280;37207;53.060;18.726;2022-08-03T12:36:53;100934.97;;;33.45;29.85
51147;BME280;37207;53.060;18.726;2022-08-03T12:39:23;100928.13;;;33.28;29.60
51147;BME280;37207;53.060;18.726;2022-08-03T12:41:52;100925.54;;;33.14;29.17
51147;BME280;37207;53.060;18.726;2022-08-03T12:44:30;100924.74;;;33.21;29.48
51147;BME280;37207;53.060;18.726;2022-08-03T12:46:58;100922.02;;;33.38;29.30
51147;BME280;37207;53.060;18.726;2022-08-03T12:49:26;100917.40;;;33.51;29.64
51147;BME280;37207;53.060;18.726;2022-08-03T12:51:58;100914.10;;;34.00;29.35
51147;BME280;37207;53.060;18.726;2022-08-03T12:54:27;100913.41;;;34.34;28.65
51147;BME280;37207;53.060;18.726;2022-08-03T12:57:07;100912.45;;;34.55;28.93
51147;BME280;37207;53.060;18.726;2022-08-03T12:59:44;100913.08;;;34.75;28.97
51147;BME280;37207;53.060;18.726;2022-08-03T13:02:16;100913.98;;;35.03;28.64
51147;BME280;37207;53.060;18.726;2022-08-03T13:04:44;100913.00;;;35.49;27.92
51147;BME280;37207;53.060;18.726;2022-08-03T13:07:14;100909.48;;;35.83;27.68
51147;BME280;37207;53.060;18.726;2022-08-03T13:09:48;100912.80;;;35.72;27.51
51147;BME280;37207;53.060;18.726;2022-08-03T13:12:19;100911.58;;;35.39;27.39
51147;BME280;37207;53.060;18.726;2022-08-03T13:14:50;100915.77;;;35.02;28.08
51147;BME280;37207;53.060;18.726;2022-08-03T13:17:20;100914.05;;;35.09;28.34
51147;BME280;37207;53.060;18.726;2022-08-03T13:19:48;100914.45;;;35.01;28.40
51147;BME280;37207;53.060;18.726;2022-08-03T13:22:24;100910.66;;;34.89;28.03
51147;BME280;37207;53.060;18.726;2022-08-03T13:24:53;100907.27;;;34.67;28.24
51147;BME280;37207;53.060;18.726;2022-08-03T13:27:24;100909.18;;;34.39;28.48
51147;BME280;37207;53.060;18.726;2022-08-03T13:29:51;100901.23;;;34.06;28.40
51147;BME280;37207;53.060;18.726;2022-08-03T13:32:19;100910.33;;;33.77;28.70
51147;BME280;37207;53.060;18.726;2022-08-03T13:34:47;100907.07;;;33.61;28.99
51147;BME280;37207;53.060;18.726;2022-08-03T13:37:14;100900.82;;;33.43;29.62
51147;BME280;37207;53.060;18.726;2022-08-03T13:39:41;100903.60;;;33.30;29.48
51147;BME280;37207;53.060;18.726;2022-08-03T13:42:09;100897.74;;;33.33;29.63
51147;BME280;37207;53.060;18.726;2022-08-03T13:44:36;100892.78;;;33.43;29.47
51147;BME280;37207;53.060;18.726;2022-08-03T13:47:03;100891.04;;;33.36;29.72
51147;BME280;37207;53.060;18.726;2022-08-03T13:49:31;100887.35;;;33.29;30.09
51147;BME280;37207;53.060;18.726;2022-08-03T13:51:58;100890.70;;;33.33;30.08
51147;BME280;37207;53.060;18.726;2022-08-03T13:54:28;100890.95;;;33.35;30.00
51147;BME280;37207;53.060;18.726;2022-08-03T13:56:56;100887.55;;;33.41;30.52
51147;BME280;37207;53.060;18.726;2022-08-03T13:59:24;100886.40;;;33.50;29.77
51147;BME280;37207;53.060;18.726;2022-08-03T14:01:52;100885.89;;;33.48;29.87
51147;BME280;37207;53.060;18.726;2022-08-03T14:04:20;100884.80;;;33.41;29.59